This is the latest recevied weather packets stored in our database for station/object Kirchdorf. If no packets are shown the sender has not sent any weather packets the latest 1 day(s).
| Time | Temp. | Humidity | Pressure | Rain* | Wind** | Luminosity | Snow |
|---|---|---|---|---|---|---|---|
| 1778092330 | 10° C | 87% | 1009.7 hPa | 6.1 mm | - | - | - |
| 1778090536 | 10° C | 88% | 1009.2 hPa | 6.1 mm | - | - | - |
| 1778088730 | 10° C | 88% | 1008.9 hPa | 6.1 mm | - | - | - |
| 1778085130 | 10° C | 89% | 1008.6 hPa | 6.1 mm | - | - | - |
| 1778079730 | 15.56° C | 76% | 1006.4 hPa | 0.51 mm | - | - | - |
| 1778068930 | 17.22° C | 62% | 1005.3 hPa | 0 mm | - | - | - |
| 1778061734 | 15.56° C | 67% | 1006.6 hPa | 0 mm | - | - | - |
| 1778059931 | 15.56° C | 70% | 1006.7 hPa | 0 mm | - | - | - |
| 1778058131 | 15° C | 76% | 1006.8 hPa | 0 mm | - | - | - |
| 1778054532 | 12.78° C | 82% | 1006.6 hPa | 0 mm | - | - | - |
| 1778052731 | 12.78° C | 84% | 1006.9 hPa | 0 mm | - | - | - |
| 1778050932 | 12.22° C | 86% | 1007.1 hPa | 0 mm | - | - | - |
| 1778049132 | 11.11° C | 90% | 1007.1 hPa | 0 mm | - | - | - |
| 1778041932 | 8.33° C | 95% | 1007.5 hPa | 0 mm | - | - | - |
| 1778040131 | 8.33° C | 94% | 1007.8 hPa | 0 mm | - | - | - |
| 1778036532 | 8.33° C | 95% | 1008.3 hPa | 0 mm | - | - | - |
| 1778032932 | 9.44° C | 95% | 1008.7 hPa | 0 mm | - | - | - |
| 1778031131 | 9.44° C | 95% | 1008.8 hPa | 0 mm | - | - | - |
| 1778029332 | 10° C | 95% | 1009.1 hPa | 0 mm | - | - | - |
| 1778020330 | 10° C | 94% | 1009.7 hPa | 0 mm | - | - | - |
| 1778016731 | 10.56° C | 93% | 1009.5 hPa | 1.02 mm | - | - | - |
* Rain since midnight (hover to see other rain measurements)
** Current wind speed in m/s (hover to see current wind gust speed)